createdAt,value
2023-11-10T00:01:54.117Z,88.41
2023-11-10T00:06:55.726Z,88.22
2023-11-10T00:11:57.597Z,88.08
2023-11-10T00:16:59.175Z,88.47
2023-11-10T00:22:00.683Z,88.40
2023-11-10T00:27:02.546Z,88.53
2023-11-10T00:32:04.270Z,88.86
2023-11-10T00:37:06.225Z,88.50
2023-11-10T00:42:07.942Z,88.44
2023-11-10T00:47:11.210Z,88.96
2023-11-10T00:52:12.744Z,88.74
2023-11-10T00:57:15.404Z,89.16
2023-11-10T01:02:16.927Z,89.03
2023-11-10T01:07:18.631Z,89.16
2023-11-10T01:12:20.823Z,89.79
2023-11-10T01:17:23.406Z,89.49
2023-11-10T01:22:24.969Z,89.46
2023-11-10T01:27:26.827Z,89.39
2023-11-10T01:32:28.429Z,89.50
2023-11-10T01:37:30.682Z,89.86
2023-11-10T01:42:32.259Z,89.70
2023-11-10T01:47:33.934Z,89.73
2023-11-10T01:52:35.693Z,89.93
2023-11-10T01:57:37.367Z,90.09
2023-11-10T02:02:39.212Z,89.96
2023-11-10T02:07:44.029Z,90.09
2023-11-10T02:12:56.814Z,90.43
2023-11-10T02:17:58.441Z,90.39
2023-11-10T02:23:00.697Z,90.40
2023-11-10T02:28:02.226Z,90.67
2023-11-10T02:33:03.905Z,90.84
2023-11-10T02:38:05.771Z,90.53
2023-11-10T02:43:08.992Z,90.41
2023-11-10T02:48:10.837Z,90.67
2023-11-10T02:53:12.432Z,90.78
2023-11-10T02:58:14.278Z,91.11
2023-11-10T03:03:16.383Z,90.68
2023-11-10T03:08:18.338Z,90.78
2023-11-10T03:13:20.854Z,90.90
2023-11-10T03:18:22.667Z,90.89
2023-11-10T03:23:24.346Z,90.84
2023-11-10T03:28:27.402Z,90.75
2023-11-10T03:33:30.252Z,90.70
2023-11-10T03:38:32.372Z,90.62
2023-11-10T03:43:34.753Z,90.50
2023-11-10T03:48:36.362Z,90.79
2023-11-10T03:53:38.193Z,90.90
2023-11-10T03:58:39.812Z,90.80
2023-11-10T04:03:42.959Z,90.71
2023-11-10T04:08:44.621Z,91.03
2023-11-10T04:13:46.840Z,91.14
2023-11-10T04:18:50.709Z,91.10
2023-11-10T04:23:52.646Z,91.09
2023-11-10T04:28:54.514Z,90.90
2023-11-10T04:33:56.154Z,90.60
2023-11-10T04:38:57.800Z,90.60
2023-11-10T04:44:00.986Z,90.31
2023-11-10T04:49:02.539Z,90.04
2023-11-10T04:54:05.190Z,90.03
2023-11-10T04:59:06.765Z,90.01
2023-11-10T05:04:09.030Z,89.49
2023-11-10T05:09:11.067Z,89.53
2023-11-10T05:14:13.220Z,89.02
2023-11-10T05:19:14.980Z,89.08
2023-11-10T05:24:17.338Z,88.63
2023-11-10T05:29:19.030Z,88.44
2023-11-10T05:34:20.842Z,88.28
2023-11-10T05:39:22.567Z,88.36
2023-11-10T05:44:24.388Z,87.92
2023-11-10T05:49:25.995Z,88.11
2023-11-10T05:54:27.623Z,87.93
2023-11-10T05:59:29.712Z,87.33
2023-11-10T06:04:35.352Z,87.63
2023-11-10T06:09:38.893Z,87.64
2023-11-10T06:14:43.018Z,87.44
2023-11-10T06:19:44.745Z,87.32
2023-11-10T06:24:46.393Z,87.10
2023-11-10T06:29:47.959Z,87.26
2023-11-10T06:34:49.890Z,86.72
2023-11-10T06:39:51.585Z,86.65
2023-11-10T06:44:53.142Z,86.17
2023-11-10T06:49:54.789Z,86.42
2023-11-10T06:54:57.940Z,86.14
2023-11-10T06:59:59.467Z,86.08
2023-11-10T07:05:00.999Z,86.05
2023-11-10T07:10:02.713Z,85.59
2023-11-10T07:15:05.362Z,85.22
2023-11-10T07:20:08.217Z,85.34
2023-11-10T07:25:09.786Z,84.89
2023-11-10T07:30:11.739Z,84.35
2023-11-10T07:35:14.614Z,84.30
2023-11-10T07:40:18.714Z,84.21
2023-11-10T07:45:20.595Z,84.03
2023-11-10T07:50:22.955Z,83.57
2023-11-10T07:55:25.324Z,83.68
2023-11-10T08:00:27.034Z,83.63
2023-11-10T08:05:28.612Z,82.89
2023-11-10T08:10:30.494Z,83.20
2023-11-10T08:15:32.095Z,82.64
2023-11-10T08:20:33.768Z,82.68
2023-11-10T08:25:36.910Z,82.46
2023-11-10T08:30:39.234Z,81.81
2023-11-10T08:35:40.843Z,81.94
2023-11-10T08:40:42.500Z,81.65
2023-11-10T08:45:44.089Z,81.55
2023-11-10T08:50:45.670Z,81.47
2023-11-10T08:55:47.453Z,81.51
2023-11-10T09:00:49.062Z,81.30
2023-11-10T09:05:50.779Z,81.40
2023-11-10T09:10:52.457Z,81.15
2023-11-10T09:16:01.704Z,80.37
2023-11-10T09:21:05.596Z,79.97
2023-11-10T09:26:07.171Z,80.28
2023-11-10T09:31:10.704Z,80.89
2023-11-10T09:36:12.197Z,79.63
2023-11-10T09:41:18.158Z,79.33
2023-11-10T09:46:20.667Z,79.28
2023-11-10T09:51:27.833Z,79.01
2023-11-10T09:56:32.381Z,79.01
2023-11-10T10:01:34.291Z,78.70
2023-11-10T10:06:37.485Z,78.18
2023-11-10T10:11:40.786Z,78.10
2023-11-10T10:16:56.346Z,77.90
2023-11-10T10:22:00.360Z,77.07
2023-11-10T10:27:02.272Z,77.42
2023-11-10T10:32:04.668Z,76.53
2023-11-10T10:37:06.543Z,76.29
2023-11-10T10:42:15.507Z,76.07
2023-11-10T10:47:17.516Z,76.50
2023-11-10T10:52:19.727Z,76.70
2023-11-10T10:57:24.965Z,75.80
2023-11-10T11:02:27.716Z,75.80
2023-11-10T11:07:57.922Z,76.05
2023-11-10T11:13:05.536Z,74.43
2023-11-10T11:18:30.140Z,74.89
2023-11-10T11:23:34.358Z,74.67
2023-11-10T11:28:40.101Z,74.03
2023-11-10T11:33:55.065Z,73.85
2023-11-10T11:38:57.721Z,73.90
2023-11-10T11:43:59.262Z,74.74
2023-11-10T11:49:03.172Z,74.55
2023-11-10T11:54:05.015Z,74.41
2023-11-10T11:59:06.691Z,74.37
2023-11-10T12:04:09.006Z,74.72
2023-11-10T12:09:11.090Z,74.80
2023-11-10T12:14:13.365Z,74.77
2023-11-10T12:19:18.956Z,74.39
2023-11-10T12:24:27.968Z,74.50
2023-11-10T12:29:31.197Z,74.44
2023-11-10T12:34:36.506Z,74.65
2023-11-10T12:39:39.412Z,74.55
2023-11-10T12:44:41.155Z,74.76
2023-11-10T12:49:44.672Z,75.03
2023-11-10T12:54:48.806Z,75.04
2023-11-10T12:59:50.449Z,74.34
2023-11-10T13:04:52.008Z,74.33
2023-11-10T13:09:53.601Z,74.60
2023-11-10T13:14:55.369Z,74.68
2023-11-10T13:19:56.981Z,74.49
2023-11-10T13:24:58.618Z,74.63
2023-11-10T13:30:04.566Z,74.50
2023-11-10T13:35:06.964Z,74.64
2023-11-10T13:40:15.665Z,74.50
2023-11-10T13:45:17.513Z,74.65
2023-11-10T13:50:19.960Z,75.35
2023-11-10T13:55:21.503Z,75.27
2023-11-10T14:00:23.335Z,75.42
2023-11-10T14:05:24.945Z,75.06
2023-11-10T14:10:26.561Z,75.45
2023-11-10T14:15:28.439Z,75.52
2023-11-10T14:20:30.067Z,75.91
2023-11-10T14:25:31.961Z,76.32
2023-11-10T14:30:34.672Z,76.79
2023-11-10T14:35:36.425Z,77.30
2023-11-10T14:40:39.626Z,77.42
2023-11-10T14:45:45.929Z,77.67
2023-11-10T14:50:49.247Z,77.73
2023-11-10T14:55:50.919Z,77.89
2023-11-10T15:00:52.629Z,77.99
2023-11-10T15:05:54.188Z,78.31
2023-11-10T15:10:56.449Z,78.38
2023-11-10T15:15:59.724Z,78.61
2023-11-10T15:21:01.350Z,78.85
2023-11-10T15:26:03.006Z,78.84
2023-11-10T15:31:06.891Z,79.13
2023-11-10T15:36:10.955Z,79.48
2023-11-10T15:41:12.539Z,79.44
2023-11-10T15:46:14.257Z,79.76
2023-11-10T15:51:15.913Z,79.90
2023-11-10T15:56:18.049Z,80.27
2023-11-10T16:01:20.127Z,80.19
2023-11-10T16:06:21.842Z,80.64
2023-11-10T16:11:23.430Z,81.05
2023-11-10T16:16:25.549Z,80.82
2023-11-10T16:21:27.386Z,80.97
2023-11-10T16:26:28.996Z,81.25
2023-11-10T16:31:30.622Z,81.48
2023-11-10T16:36:32.224Z,81.32
2023-11-10T16:41:36.367Z,81.80
2023-11-10T16:46:38.024Z,81.98
2023-11-10T16:51:41.317Z,82.36
2023-11-10T16:56:42.968Z,82.13
2023-11-10T17:01:44.644Z,82.53
2023-11-10T17:06:47.711Z,82.44
2023-11-10T17:11:49.271Z,82.73
2023-11-10T17:16:51.381Z,82.59
2023-11-10T17:21:54.213Z,82.78
2023-11-10T17:26:56.787Z,82.78
2023-11-10T17:32:02.601Z,83.03
2023-11-10T17:37:05.398Z,83.10
2023-11-10T17:42:07.436Z,83.06
2023-11-10T17:47:09.124Z,83.67
2023-11-10T17:52:10.775Z,83.48
2023-11-10T17:57:12.446Z,83.22
2023-11-10T18:02:14.493Z,83.83
2023-11-10T18:07:17.427Z,83.85
2023-11-10T18:12:19.409Z,83.75
2023-11-10T18:17:21.699Z,84.00
2023-11-10T18:22:23.369Z,83.65
2023-11-10T18:27:25.644Z,84.06
2023-11-10T18:32:27.362Z,83.65
2023-11-10T18:37:29.413Z,83.68
2023-11-10T18:42:30.974Z,83.72
2023-11-10T18:47:32.575Z,83.49
2023-11-10T18:52:34.496Z,83.77
2023-11-10T18:57:36.211Z,83.83
2023-11-10T19:02:38.089Z,84.04
2023-11-10T19:07:41.678Z,84.37
2023-11-10T19:12:45.307Z,83.96
2023-11-10T19:17:47.215Z,83.95
2023-11-10T19:22:49.034Z,83.78
2023-11-10T19:27:51.217Z,83.77
2023-11-10T19:32:52.875Z,83.91
2023-11-10T19:37:54.933Z,83.85
2023-11-10T19:42:56.850Z,84.07
2023-11-10T19:47:58.460Z,84.52
2023-11-10T19:53:02.219Z,84.56
2023-11-10T19:58:03.889Z,84.69
2023-11-10T20:03:06.284Z,84.87
2023-11-10T20:08:09.244Z,85.09
2023-11-10T20:13:10.888Z,85.30
2023-11-10T20:18:12.674Z,85.10
2023-11-10T20:23:14.644Z,85.71
2023-11-10T20:28:16.197Z,85.65
2023-11-10T20:33:17.855Z,85.84
2023-11-10T20:38:19.768Z,86.37
2023-11-10T20:43:21.283Z,86.33
2023-11-10T20:48:22.962Z,86.66
2023-11-10T20:53:24.705Z,86.62
2023-11-10T20:58:26.244Z,86.57
2023-11-10T21:03:27.951Z,87.23
2023-11-10T21:08:29.713Z,87.50
2023-11-10T21:13:31.298Z,87.14
2023-11-10T21:18:35.031Z,87.42
2023-11-10T21:23:36.486Z,87.56
2023-11-10T21:28:40.167Z,88.13
2023-11-10T21:33:41.857Z,87.70
2023-11-10T21:38:43.627Z,88.42
2023-11-10T21:43:45.174Z,88.88
2023-11-10T21:48:46.739Z,89.18
2023-11-10T21:53:48.267Z,88.94
2023-11-10T21:58:50.077Z,88.94
2023-11-10T22:03:51.719Z,89.05
2023-11-10T22:08:53.322Z,89.14
2023-11-10T22:13:55.398Z,89.94
2023-11-10T22:18:57.770Z,90.03
2023-11-10T22:23:59.362Z,90.97
2023-11-10T22:29:00.888Z,91.13
2023-11-10T22:34:02.464Z,90.63
2023-11-10T22:39:04.146Z,91.37
2023-11-10T22:44:06.045Z,90.95
2023-11-10T22:49:07.804Z,90.79
2023-11-10T22:54:09.511Z,91.19
2023-11-10T22:59:11.065Z,91.87
2023-11-10T23:04:12.716Z,91.87
2023-11-10T23:09:15.428Z,92.15
2023-11-10T23:14:17.023Z,92.25
2023-11-10T23:19:19.371Z,91.91
2023-11-10T23:24:21.036Z,92.38
2023-11-10T23:29:23.652Z,91.70
2023-11-10T23:34:25.239Z,91.24
2023-11-10T23:39:27.270Z,93.04
2023-11-10T23:44:28.873Z,92.44
2023-11-10T23:49:30.771Z,91.74
2023-11-10T23:54:33.911Z,92.15
2023-11-10T23:59:36.735Z,91.68
